createdAt,value
2019-02-23T00:02:18.349Z,99722.64
2019-02-23T00:04:46.752Z,99731.27
2019-02-23T00:07:15.147Z,99726.05
2019-02-23T00:09:43.548Z,99722.39
2019-02-23T00:12:11.930Z,99726.14
2019-02-23T00:14:40.317Z,99721.94
2019-02-23T00:17:08.733Z,99713.70
2019-02-23T00:19:37.124Z,99719.94
2019-02-23T00:22:05.513Z,99721.49
2019-02-23T00:24:33.915Z,99719.83
2019-02-23T00:27:02.314Z,99721.89
2019-02-23T00:29:30.709Z,99721.83
2019-02-23T00:31:59.107Z,99725.14
2019-02-23T00:34:29.527Z,99729.20
2019-02-23T00:36:58.000Z,99732.64
2019-02-23T00:39:26.388Z,99738.59
2019-02-23T00:41:54.789Z,99740.20
2019-02-23T00:44:23.185Z,99750.73
2019-02-23T00:46:51.582Z,99760.49
2019-02-23T00:49:19.977Z,99760.77
2019-02-23T00:51:48.438Z,99762.36
2019-02-23T00:54:16.830Z,99760.44
2019-02-23T00:56:45.221Z,99750.91
2019-02-23T00:59:13.651Z,99749.58
2019-02-23T01:01:42.044Z,99757.55
2019-02-23T01:04:10.438Z,99761.23
2019-02-23T01:06:38.835Z,99758.96
2019-02-23T01:09:07.224Z,99754.05
2019-02-23T01:11:35.619Z,99761.16
2019-02-23T01:14:04.084Z,99764.36
2019-02-23T01:16:32.542Z,99764.70
2019-02-23T01:19:00.938Z,99771.98
2019-02-23T01:21:29.332Z,99769.23
2019-02-23T01:23:57.820Z,99772.27
2019-02-23T01:26:26.201Z,99764.56
2019-02-23T01:28:54.592Z,99755.01
2019-02-23T01:31:23.064Z,99763.91
2019-02-23T01:33:51.460Z,99764.08
2019-02-23T01:36:19.863Z,99760.61
2019-02-23T01:38:48.246Z,99761.73
2019-02-23T01:41:16.637Z,99766.20
2019-02-23T01:43:45.099Z,99764.48
2019-02-23T01:46:13.491Z,99764.34
2019-02-23T01:48:41.886Z,99763.55
2019-02-23T01:51:10.283Z,99759.12
2019-02-23T01:53:38.683Z,99764.06
2019-02-23T01:56:07.064Z,99763.13
2019-02-23T01:58:35.459Z,99769.93
2019-02-23T02:01:04.992Z,99773.30
2019-02-23T02:03:33.454Z,99773.44
2019-02-23T02:06:01.849Z,99770.22
2019-02-23T02:08:30.479Z,99773.09
2019-02-23T02:10:58.868Z,99767.31
2019-02-23T02:13:27.291Z,99770.61
2019-02-23T02:15:55.724Z,99772.19
2019-02-23T02:18:24.261Z,99767.11
2019-02-23T02:20:52.656Z,99766.97
2019-02-23T02:23:21.050Z,99770.25
2019-02-23T02:25:49.440Z,99763.04
2019-02-23T02:28:17.843Z,99765.89
2019-02-23T02:30:46.312Z,99764.31
2019-02-23T02:33:14.676Z,99768.55
2019-02-23T02:35:43.071Z,99764.67
2019-02-23T02:38:11.471Z,99771.02
2019-02-23T02:40:39.876Z,99772.94
2019-02-23T02:43:08.271Z,99775.36
2019-02-23T02:45:36.729Z,99773.53
2019-02-23T02:48:05.208Z,99774.39
2019-02-23T02:50:33.679Z,99773.46
2019-02-23T02:53:02.073Z,99784.34
2019-02-23T02:55:30.468Z,99782.20
2019-02-23T02:57:58.882Z,99792.22
2019-02-23T03:00:27.277Z,99797.63
2019-02-23T03:02:55.675Z,99801.30
2019-02-23T03:05:24.080Z,99804.95
2019-02-23T03:07:52.480Z,99803.53
2019-02-23T03:10:20.869Z,99814.96
2019-02-23T03:12:49.265Z,99807.34
2019-02-23T03:15:17.650Z,99804.80
2019-02-23T03:17:46.054Z,99798.94
2019-02-23T03:20:14.457Z,99798.64
2019-02-23T03:22:42.864Z,99798.79
2019-02-23T03:25:11.267Z,99798.45
2019-02-23T03:27:39.667Z,99804.95
2019-02-23T03:30:11.854Z,99802.75
2019-02-23T03:32:40.389Z,99796.47
2019-02-23T03:35:08.876Z,99796.41
2019-02-23T03:37:37.281Z,99790.50
2019-02-23T03:40:07.713Z,99782.73
2019-02-23T03:42:36.150Z,99778.47
2019-02-23T03:45:05.110Z,99779.26
2019-02-23T03:47:33.491Z,99781.95
2019-02-23T03:50:01.880Z,99780.86
2019-02-23T03:52:30.274Z,99780.72
2019-02-23T03:54:58.675Z,99782.59
2019-02-23T03:57:27.135Z,99779.74
2019-02-23T03:59:55.525Z,99784.83
2019-02-23T04:02:23.948Z,99781.95
2019-02-23T04:04:52.346Z,99780.16
2019-02-23T04:07:20.741Z,99783.66
2019-02-23T04:09:49.137Z,99779.59
2019-02-23T04:12:17.535Z,99777.23
2019-02-23T04:14:46.002Z,99777.61
2019-02-23T04:17:14.397Z,99743.70
2019-02-23T04:19:42.850Z,99769.09
2019-02-23T04:22:11.244Z,99772.53
2019-02-23T04:24:39.642Z,99781.49
2019-02-23T04:27:09.161Z,99785.53
2019-02-23T04:29:37.530Z,99784.78
2019-02-23T04:32:05.933Z,99791.17
2019-02-23T04:34:34.332Z,99797.14
2019-02-23T04:37:02.718Z,99801.48
2019-02-23T04:39:31.117Z,99799.66
2019-02-23T04:41:59.542Z,99794.31
2019-02-23T04:44:27.953Z,99794.34
2019-02-23T04:46:56.340Z,99789.75
2019-02-23T04:49:25.930Z,99788.22
2019-02-23T04:51:54.619Z,99784.89
2019-02-23T04:54:23.015Z,99779.66
2019-02-23T04:56:51.410Z,99781.56
2019-02-23T04:59:19.806Z,99781.16
2019-02-23T05:01:48.200Z,99781.26
2019-02-23T05:04:16.661Z,99789.03
2019-02-23T05:06:45.046Z,99727.25
2019-02-23T05:09:13.445Z,99773.34
2019-02-23T05:11:41.837Z,99780.80
2019-02-23T05:14:10.230Z,99773.81
2019-02-23T05:16:38.622Z,99770.65
2019-02-23T05:19:07.060Z,99770.65
2019-02-23T05:21:35.429Z,99776.20
2019-02-23T05:24:03.824Z,99770.09
2019-02-23T05:26:32.215Z,99763.19
2019-02-23T05:29:00.613Z,99767.93
2019-02-23T05:31:29.382Z,99769.84
2019-02-23T05:33:57.788Z,99771.44
2019-02-23T05:36:26.182Z,99780.49
2019-02-23T05:38:54.595Z,99783.66
2019-02-23T05:41:22.993Z,99779.07
2019-02-23T05:43:51.377Z,99778.44
2019-02-23T05:46:19.777Z,99786.42
2019-02-23T05:48:48.183Z,99786.50
2019-02-23T05:51:16.553Z,99793.18
2019-02-23T05:53:44.950Z,99794.70
2019-02-23T05:56:16.237Z,99785.56
2019-02-23T05:58:43.462Z,99786.73
2019-02-23T06:01:11.868Z,99792.86
2019-02-23T06:03:40.260Z,99793.02
2019-02-23T06:06:08.658Z,99795.75
2019-02-23T06:08:37.064Z,99801.39
2019-02-23T06:11:05.478Z,99802.33
2019-02-23T06:13:33.864Z,99794.08
2019-02-23T06:16:02.526Z,99799.72
2019-02-23T06:18:30.912Z,99805.24
2019-02-23T06:20:59.313Z,99809.87
2019-02-23T06:23:27.718Z,99820.25
2019-02-23T06:25:56.102Z,99822.97
2019-02-23T06:28:24.488Z,99808.67
2019-02-23T06:30:52.880Z,99790.12
2019-02-23T06:33:21.287Z,99781.38
2019-02-23T06:35:49.685Z,99767.56
2019-02-23T06:38:18.079Z,99771.38
2019-02-23T06:40:46.481Z,99775.19
2019-02-23T06:43:14.875Z,99776.94
2019-02-23T06:45:43.262Z,99775.19
2019-02-23T06:48:11.652Z,99779.33
2019-02-23T06:50:40.062Z,99781.38
2019-02-23T06:53:08.499Z,99795.19
2019-02-23T06:55:36.897Z,99797.40
2019-02-23T06:58:05.285Z,99799.23
2019-02-23T07:00:33.840Z,99800.12
2019-02-23T07:03:02.238Z,99806.95
2019-02-23T07:05:30.641Z,99813.30
2019-02-23T07:07:59.078Z,99823.30
2019-02-23T07:10:27.940Z,99816.28
2019-02-23T07:12:56.333Z,99805.27
2019-02-23T07:15:24.729Z,99802.81
2019-02-23T07:17:53.124Z,99816.75
2019-02-23T07:20:21.518Z,99829.67
2019-02-23T07:22:49.910Z,99844.05
2019-02-23T07:25:18.309Z,99845.89
2019-02-23T07:27:46.743Z,99857.47
2019-02-23T07:30:15.222Z,99861.51
2019-02-23T07:32:43.609Z,99867.68
2019-02-23T07:35:12.154Z,99852.29
2019-02-23T07:37:40.525Z,99849.43
2019-02-23T07:40:11.261Z,99846.89
2019-02-23T07:42:39.652Z,99850.67
2019-02-23T07:45:09.791Z,99841.67
2019-02-23T07:47:38.178Z,99845.97
2019-02-23T07:50:12.413Z,99840.78
2019-02-23T07:52:40.807Z,99841.27
2019-02-23T07:55:09.208Z,99852.44
2019-02-23T07:57:37.607Z,99855.50
2019-02-23T08:00:11.701Z,99851.92
2019-02-23T08:02:40.096Z,99849.30
2019-02-23T08:05:09.926Z,99843.61
2019-02-23T08:07:39.927Z,99840.66
2019-02-23T08:10:10.701Z,99830.34
2019-02-23T08:12:39.103Z,99833.17
2019-02-23T08:15:11.570Z,99837.44
2019-02-23T08:17:39.980Z,99840.94
2019-02-23T08:20:10.424Z,99854.39
2019-02-23T08:22:38.817Z,99853.48
2019-02-23T08:25:15.148Z,99855.11
2019-02-23T08:27:43.558Z,99868.11
2019-02-23T08:30:15.024Z,99874.27
2019-02-23T08:32:43.396Z,99871.73
2019-02-23T08:35:11.799Z,99868.12
2019-02-23T08:37:40.194Z,99868.61
2019-02-23T08:40:16.592Z,99866.73
2019-02-23T08:42:44.990Z,99867.48
2019-02-23T08:45:13.467Z,99866.02
2019-02-23T08:47:41.852Z,99872.97
2019-02-23T08:50:13.292Z,99880.15
2019-02-23T08:52:49.089Z,99885.31
2019-02-23T08:55:11.810Z,99890.92
2019-02-23T08:57:40.204Z,99887.58
2019-02-23T09:00:16.708Z,99896.01
2019-02-23T09:02:45.105Z,99899.03
2019-02-23T09:05:14.234Z,99894.63
2019-02-23T09:07:42.623Z,99896.56
2019-02-23T09:10:14.628Z,99890.00
2019-02-23T09:12:42.991Z,99893.50
2019-02-23T09:15:12.019Z,99891.89
2019-02-23T09:17:40.417Z,99900.08
2019-02-23T09:20:12.872Z,99901.41
2019-02-23T09:22:41.256Z,99887.62
2019-02-23T09:25:10.986Z,99883.80
2019-02-23T09:27:39.475Z,99886.86
2019-02-23T09:30:11.189Z,99881.55
2019-02-23T09:32:39.679Z,99879.84
2019-02-23T09:35:08.351Z,99868.96
2019-02-23T09:37:36.695Z,99879.97
2019-02-23T09:40:08.137Z,99849.41
2019-02-23T09:42:36.603Z,99888.67
2019-02-23T09:45:06.148Z,99893.20
2019-02-23T09:47:34.536Z,99896.37
2019-02-23T09:50:02.918Z,99898.84
2019-02-23T09:52:31.301Z,99903.40
2019-02-23T09:54:59.695Z,99893.78
2019-02-23T09:57:28.119Z,99911.63
2019-02-23T09:59:56.604Z,99901.91
2019-02-23T10:02:24.990Z,99902.17
2019-02-23T10:04:53.396Z,99898.12
2019-02-23T10:07:21.824Z,99904.44
2019-02-23T10:09:50.257Z,99907.17
2019-02-23T10:12:18.661Z,99916.16
2019-02-23T10:14:47.047Z,99920.53
2019-02-23T10:17:15.438Z,99921.67
2019-02-23T10:19:43.832Z,99919.45
2019-02-23T10:22:12.222Z,99918.43
2019-02-23T10:24:40.656Z,99918.27
2019-02-23T10:27:09.050Z,99914.58
2019-02-23T10:29:37.430Z,99917.25
2019-02-23T10:32:05.816Z,99921.59
2019-02-23T10:34:34.209Z,99924.20
2019-02-23T10:37:02.595Z,99918.55
2019-02-23T10:39:30.994Z,99912.63
2019-02-23T10:41:59.381Z,99902.90
2019-02-23T10:44:27.770Z,99894.89
2019-02-23T10:46:56.229Z,99888.08
2019-02-23T10:49:24.656Z,99889.92
2019-02-23T10:51:53.062Z,99895.27
2019-02-23T10:54:21.490Z,99883.61
2019-02-23T10:56:49.854Z,99888.95
2019-02-23T10:59:18.242Z,99878.19
2019-02-23T11:01:46.700Z,99876.38
2019-02-23T11:04:15.014Z,99865.26
2019-02-23T11:06:43.414Z,99854.25
2019-02-23T11:09:13.436Z,99851.22
2019-02-23T11:11:41.830Z,99844.95
2019-02-23T11:14:10.294Z,99853.52
2019-02-23T11:16:38.689Z,99845.00
2019-02-23T11:19:07.148Z,99841.77
2019-02-23T11:21:35.598Z,99839.95
2019-02-23T11:24:03.992Z,99851.20
2019-02-23T11:26:39.550Z,99853.31
2019-02-23T11:29:08.120Z,99853.65
2019-02-23T11:31:36.508Z,99855.84
2019-02-23T11:34:04.896Z,99855.13
2019-02-23T11:36:33.296Z,99845.41
2019-02-23T11:39:07.909Z,99841.63
2019-02-23T11:41:36.294Z,99838.39
2019-02-23T11:44:04.697Z,99843.23
2019-02-23T11:46:33.079Z,99853.26
2019-02-23T11:49:03.382Z,99849.37
2019-02-23T11:51:31.764Z,99827.80
2019-02-23T11:54:00.147Z,99847.25
2019-02-23T11:56:28.542Z,99846.94
2019-02-23T11:58:56.922Z,99828.41
2019-02-23T12:01:25.306Z,99818.63
2019-02-23T12:03:53.693Z,99818.83
2019-02-23T12:06:22.083Z,99816.14
2019-02-23T12:08:57.398Z,99802.37
2019-02-23T12:11:25.780Z,99795.93
2019-02-23T12:13:54.165Z,99786.75
2019-02-23T12:16:22.624Z,99786.48
2019-02-23T12:19:05.329Z,99783.23
2019-02-23T12:21:33.720Z,99783.19
2019-02-23T12:24:06.073Z,99785.50
2019-02-23T12:26:32.203Z,99773.72
2019-02-23T12:29:00.889Z,99769.15
2019-02-23T12:31:29.276Z,99768.30
2019-02-23T12:33:57.667Z,99763.89
2019-02-23T12:36:26.054Z,99768.25
2019-02-23T12:38:54.443Z,99762.70
2019-02-23T12:41:22.824Z,99752.72
2019-02-23T12:43:51.213Z,99759.11
2019-02-23T12:46:19.597Z,99752.72
2019-02-23T12:48:47.978Z,99752.77
2019-02-23T12:51:16.362Z,99752.09
2019-02-23T12:53:44.742Z,99753.84
2019-02-23T12:56:13.217Z,99743.91
2019-02-23T12:58:41.598Z,99742.34
2019-02-23T13:01:09.982Z,99744.94
2019-02-23T13:03:38.368Z,99748.36
2019-02-23T13:06:06.910Z,99741.11
2019-02-23T13:09:15.621Z,99735.20
2019-02-23T13:11:59.279Z,99742.06
2019-02-23T13:14:59.396Z,99726.15
2019-02-23T13:17:57.746Z,99719.89
2019-02-23T13:20:34.905Z,99714.83
2019-02-23T13:23:18.535Z,99727.23
2019-02-23T13:25:52.820Z,99731.73
2019-02-23T13:28:29.967Z,99734.29
2019-02-23T13:31:30.218Z,99731.17
2019-02-23T13:34:33.385Z,99720.84
2019-02-23T13:37:30.194Z,99722.59
2019-02-23T13:40:07.297Z,99711.08
2019-02-23T13:42:44.681Z,99714.45
2019-02-23T13:45:24.891Z,99703.31
2019-02-23T13:48:05.280Z,99690.15
2019-02-23T13:51:05.409Z,99688.11
2019-02-23T13:53:55.090Z,99693.73
2019-02-23T13:57:01.213Z,99681.37
2019-02-23T13:59:35.414Z,99679.46
2019-02-23T14:02:27.724Z,99673.33
2019-02-23T14:05:17.060Z,99670.48
2019-02-23T14:08:06.404Z,99664.55
2019-02-23T14:10:52.768Z,99650.95
2019-02-23T14:13:45.396Z,99661.69
2019-02-23T14:16:25.554Z,99659.48
2019-02-23T14:19:02.932Z,99665.62
2019-02-23T14:21:50.793Z,99676.84
2019-02-23T14:24:50.078Z,99681.19
2019-02-23T14:27:19.425Z,99682.05
2019-02-23T14:30:24.551Z,99677.01
2019-02-23T14:33:08.643Z,99673.98
2019-02-23T14:36:06.415Z,99668.91
2019-02-23T14:38:58.545Z,99662.55
2019-02-23T14:41:30.133Z,99658.70
2019-02-23T14:44:07.183Z,99661.34
2019-02-23T14:46:50.723Z,99662.71
2019-02-23T14:49:33.921Z,99665.27
2019-02-23T14:52:23.010Z,99667.02
2019-02-23T14:55:00.808Z,99665.36
2019-02-23T14:57:36.380Z,99670.86
2019-02-23T15:00:19.991Z,99666.94
2019-02-23T15:03:12.769Z,99660.53
2019-02-23T15:05:50.266Z,99656.69
2019-02-23T15:08:27.868Z,99646.38
2019-02-23T15:11:05.684Z,99649.70
2019-02-23T15:13:56.835Z,99647.11
2019-02-23T15:16:46.580Z,99648.38
2019-02-23T15:19:18.151Z,99651.33
2019-02-23T15:21:49.666Z,99637.98
2019-02-23T15:24:26.991Z,99629.83
2019-02-23T15:27:23.940Z,99628.50
2019-02-23T15:30:10.352Z,99622.02
2019-02-23T15:32:53.857Z,99621.98
2019-02-23T15:35:42.004Z,99618.48
2019-02-23T15:38:25.535Z,99626.03
2019-02-23T15:41:25.806Z,99625.44
2019-02-23T15:44:00.260Z,99621.90
2019-02-23T15:46:48.004Z,99617.97
2019-02-23T15:49:32.454Z,99620.53
2019-02-23T15:52:01.984Z,99632.86
2019-02-23T15:54:30.319Z,99627.31
2019-02-23T15:57:06.629Z,99622.54
2019-02-23T15:59:35.053Z,99616.09
2019-02-23T16:02:03.463Z,99621.13
2019-02-23T16:04:31.844Z,99630.80
2019-02-23T16:07:00.222Z,99628.15
2019-02-23T16:09:28.601Z,99628.48
2019-02-23T16:11:56.986Z,99632.70
2019-02-23T16:14:25.365Z,99639.52
2019-02-23T16:16:54.090Z,99647.58
2019-02-23T16:19:22.473Z,99647.58
2019-02-23T16:21:52.920Z,99650.38
2019-02-23T16:24:20.963Z,99652.46
2019-02-23T16:26:49.414Z,99648.53
2019-02-23T16:29:17.795Z,99644.61
2019-02-23T16:31:46.181Z,99646.27
2019-02-23T16:34:14.557Z,99655.12
2019-02-23T16:36:43.025Z,99647.70
2019-02-23T16:39:11.398Z,99643.70
2019-02-23T16:41:39.805Z,99646.52
2019-02-23T16:44:08.186Z,99642.10
2019-02-23T16:46:36.564Z,99640.21
2019-02-23T16:49:04.961Z,99646.41
2019-02-23T16:51:33.406Z,99644.13
2019-02-23T16:54:01.790Z,99639.30
2019-02-23T16:56:30.174Z,99643.84
2019-02-23T16:58:58.575Z,99639.00
2019-02-23T17:01:26.970Z,99639.66
2019-02-23T17:03:55.352Z,99645.09
2019-02-23T17:06:23.733Z,99651.27
2019-02-23T17:08:52.128Z,99645.63
2019-02-23T17:11:20.519Z,99649.73
2019-02-23T17:13:48.959Z,99656.07
2019-02-23T17:16:17.394Z,99653.08
2019-02-23T17:18:45.781Z,99662.77
2019-02-23T17:21:14.167Z,99664.80
2019-02-23T17:23:42.553Z,99655.74
2019-02-23T17:26:10.935Z,99656.81
2019-02-23T17:28:39.398Z,99665.53
2019-02-23T17:31:07.778Z,99661.55
2019-02-23T17:33:36.173Z,99668.29
2019-02-23T17:36:04.565Z,99664.36
2019-02-23T17:38:32.957Z,99664.25
2019-02-23T17:41:01.349Z,99664.03
2019-02-23T17:43:29.741Z,99662.18
2019-02-23T17:45:58.124Z,99668.01
2019-02-23T17:48:26.528Z,99664.93
2019-02-23T17:50:54.911Z,99661.85
2019-02-23T17:53:23.305Z,99666.84
2019-02-23T17:55:51.686Z,99667.20
2019-02-23T17:58:20.087Z,99667.09
2019-02-23T18:00:48.479Z,99670.01
2019-02-23T18:03:16.879Z,99669.89
2019-02-23T18:05:45.262Z,99668.56
2019-02-23T18:08:13.658Z,99669.78
2019-02-23T18:10:42.047Z,99664.63
2019-02-23T18:13:11.933Z,99667.13
2019-02-23T18:15:40.409Z,99660.27
2019-02-23T18:18:08.813Z,99659.36
2019-02-23T18:20:37.205Z,99660.27
2019-02-23T18:23:05.659Z,99651.34
2019-02-23T18:25:34.118Z,99657.34
2019-02-23T18:28:02.584Z,99653.57
2019-02-23T18:30:30.980Z,99664.21
2019-02-23T18:32:59.395Z,99663.05
2019-02-23T18:35:27.797Z,99668.98
2019-02-23T18:37:56.179Z,99676.63
2019-02-23T18:40:24.573Z,99673.14
2019-02-23T18:42:52.981Z,99673.02
2019-02-23T18:45:21.366Z,99672.05
2019-02-23T18:47:49.751Z,99672.00
2019-02-23T18:50:18.196Z,99669.22
2019-02-23T18:52:46.590Z,99675.37
2019-02-23T18:55:14.998Z,99668.02
2019-02-23T18:57:43.379Z,99667.91
2019-02-23T19:00:12.979Z,99666.13
2019-02-23T19:02:41.364Z,99664.44
2019-02-23T19:05:11.891Z,99669.77
2019-02-23T19:07:40.350Z,99657.08
2019-02-23T19:10:11.389Z,99660.55
2019-02-23T19:12:40.817Z,99654.81
2019-02-23T19:15:11.647Z,99651.37
2019-02-23T19:17:40.043Z,99644.20
2019-02-23T19:20:11.512Z,99648.38
2019-02-23T19:22:39.900Z,99651.27
2019-02-23T19:25:10.027Z,99651.98
2019-02-23T19:27:38.410Z,99647.62
2019-02-23T19:30:10.056Z,99645.82
2019-02-23T19:32:38.436Z,99641.86
2019-02-23T19:35:07.781Z,99648.50
2019-02-23T19:37:36.168Z,99649.66
2019-02-23T19:40:08.915Z,99658.02
2019-02-23T19:42:37.303Z,99661.73
2019-02-23T19:45:12.412Z,99659.86
2019-02-23T19:47:42.149Z,99658.47
2019-02-23T19:50:13.903Z,99661.38
2019-02-23T19:52:42.364Z,99662.17
2019-02-23T19:55:14.297Z,99669.25
2019-02-23T19:57:42.682Z,99675.03
2019-02-23T20:00:11.240Z,99677.02
2019-02-23T20:02:40.665Z,99673.87
2019-02-23T20:05:10.192Z,99677.98
2019-02-23T20:07:39.647Z,99675.77
2019-02-23T20:10:09.878Z,99665.80
2019-02-23T20:12:38.268Z,99675.93
2019-02-23T20:15:09.847Z,99685.99
2019-02-23T20:17:38.225Z,99685.88
2019-02-23T20:20:07.562Z,99680.21
2019-02-23T20:22:35.949Z,99674.58
2019-02-23T20:25:05.293Z,99677.42
2019-02-23T20:27:33.685Z,99681.17
2019-02-23T20:30:02.083Z,99681.05
2019-02-23T20:32:30.909Z,99678.79
2019-02-23T20:35:00.328Z,99681.15
2019-02-23T20:37:28.734Z,99684.08
2019-02-23T20:39:57.116Z,99681.88
2019-02-23T20:42:25.510Z,99682.30
2019-02-23T20:44:53.908Z,99684.78
2019-02-23T20:47:22.295Z,99680.89
2019-02-23T20:49:50.799Z,99682.10
2019-02-23T20:52:19.195Z,99686.72
2019-02-23T20:54:47.581Z,99688.34
2019-02-23T20:57:16.045Z,99687.42
2019-02-23T20:59:44.372Z,99684.27
2019-02-23T21:02:12.785Z,99678.56
2019-02-23T21:04:41.176Z,99676.44
2019-02-23T21:07:09.570Z,99675.89
2019-02-23T21:09:37.959Z,99683.08
2019-02-23T21:12:06.355Z,99682.95
2019-02-23T21:14:34.743Z,99684.23
2019-02-23T21:17:03.138Z,99684.16
2019-02-23T21:19:31.529Z,99675.19
2019-02-23T21:22:00.933Z,99681.91
2019-02-23T21:24:29.330Z,99683.97
2019-02-23T21:26:57.723Z,99688.64
2019-02-23T21:29:26.950Z,99683.42
2019-02-23T21:31:55.332Z,99685.45
2019-02-23T21:34:23.749Z,99680.75
2019-02-23T21:36:52.169Z,99682.30
2019-02-23T21:39:20.663Z,99677.15
2019-02-23T21:41:49.052Z,99686.47
2019-02-23T21:44:17.443Z,99678.77
2019-02-23T21:46:45.927Z,99682.04
2019-02-23T21:49:14.325Z,99682.04
2019-02-23T21:51:42.754Z,99681.59
2019-02-23T21:54:11.517Z,99684.92
2019-02-23T21:56:42.599Z,99686.99
2019-02-23T21:59:11.206Z,99682.73
2019-02-23T22:01:39.624Z,99680.05
2019-02-23T22:04:07.995Z,99688.89
2019-02-23T22:06:36.522Z,99683.25
2019-02-23T22:09:08.462Z,99678.52
2019-02-23T22:11:36.866Z,99687.73
2019-02-23T22:14:10.390Z,99688.08
2019-02-23T22:16:38.838Z,99696.53
2019-02-23T22:19:07.214Z,99701.13
2019-02-23T22:21:35.623Z,99705.29
2019-02-23T22:24:04.082Z,99706.49
2019-02-23T22:26:32.489Z,99710.23
2019-02-23T22:29:02.808Z,99711.37
2019-02-23T22:31:32.117Z,99712.16
2019-02-23T22:34:00.509Z,99707.42
2019-02-23T22:36:28.921Z,99703.98
2019-02-23T22:38:57.314Z,99696.22
2019-02-23T22:41:25.712Z,99692.38
2019-02-23T22:43:54.139Z,99685.95
2019-02-23T22:46:22.538Z,99680.80
2019-02-23T22:48:51.898Z,99688.42
2019-02-23T22:51:20.289Z,99678.12
2019-02-23T22:53:48.688Z,99670.73
2019-02-23T22:56:17.086Z,99674.48
2019-02-23T22:58:45.756Z,99676.95
2019-02-23T23:01:14.558Z,99669.33
2019-02-23T23:03:42.949Z,99667.98
2019-02-23T23:06:11.405Z,99666.58
2019-02-23T23:08:39.883Z,99666.65
2019-02-23T23:11:08.393Z,99667.06
2019-02-23T23:13:36.731Z,99668.74
2019-02-23T23:16:05.162Z,99667.85
2019-02-23T23:18:33.533Z,99662.32
2019-02-23T23:21:01.921Z,99669.02
2019-02-23T23:23:30.312Z,99669.02
2019-02-23T23:25:58.702Z,99666.27
2019-02-23T23:28:27.091Z,99670.73
2019-02-23T23:30:55.486Z,99671.00
2019-02-23T23:33:24.857Z,99669.66
2019-02-23T23:35:53.247Z,99667.43
2019-02-23T23:38:21.644Z,99661.97
2019-02-23T23:40:50.036Z,99665.78
2019-02-23T23:43:18.435Z,99664.37
2019-02-23T23:45:46.830Z,99667.39
2019-02-23T23:48:15.225Z,99666.13
2019-02-23T23:50:43.664Z,99663.09
2019-02-23T23:53:12.014Z,99665.98
2019-02-23T23:55:40.400Z,99661.69
2019-02-23T23:58:08.833Z,99660.42
